createdAt,value
2023-02-19T00:03:08.299Z,8.70
2023-02-19T00:08:12.759Z,7.53
2023-02-19T00:13:16.312Z,8.37
2023-02-19T00:18:19.301Z,9.00
2023-02-19T00:23:23.763Z,8.33
2023-02-19T00:28:26.820Z,9.63
2023-02-19T00:33:30.130Z,8.63
2023-02-19T00:38:37.999Z,9.17
2023-02-19T00:43:41.089Z,7.80
2023-02-19T00:48:46.638Z,8.07
2023-02-19T00:53:51.222Z,7.70
2023-02-19T00:58:54.505Z,7.57
2023-02-19T01:03:57.565Z,6.90
2023-02-19T01:09:01.792Z,6.10
2023-02-19T01:14:05.210Z,5.73
2023-02-19T01:19:08.816Z,5.57
2023-02-19T01:24:13.425Z,5.13
2023-02-19T01:29:16.433Z,5.00
2023-02-19T01:34:19.479Z,4.60
2023-02-19T01:39:23.886Z,4.73
2023-02-19T01:45:04.348Z,4.27
2023-02-19T01:50:08.071Z,4.57
2023-02-19T01:55:14.044Z,4.97
2023-02-19T02:00:17.946Z,4.73
2023-02-19T02:05:31.131Z,4.03
2023-02-19T02:10:35.706Z,4.13
2023-02-19T02:15:49.906Z,3.30
2023-02-19T02:21:26.324Z,2.90
2023-02-19T02:26:45.951Z,3.27
2023-02-19T02:31:55.101Z,3.70
2023-02-19T02:36:59.343Z,4.07
2023-02-19T02:42:20.951Z,3.50
2023-02-19T02:47:43.172Z,3.80
2023-02-19T02:53:07.204Z,3.03
2023-02-19T02:58:11.822Z,3.70
2023-02-19T03:03:22.273Z,3.97
2023-02-19T03:08:30.263Z,4.67
2023-02-19T03:13:56.485Z,3.53
2023-02-19T03:19:19.268Z,3.73
2023-02-19T03:24:45.687Z,4.60
2023-02-19T03:29:51.481Z,3.50
2023-02-19T03:35:01.118Z,4.70
2023-02-19T03:40:04.952Z,3.53
2023-02-19T03:45:26.036Z,4.10
2023-02-19T03:50:41.816Z,4.43
2023-02-19T03:55:48.929Z,4.43
2023-02-19T04:00:59.301Z,4.03
2023-02-19T04:06:06.976Z,3.83
2023-02-19T04:11:11.459Z,4.00
2023-02-19T04:16:21.509Z,3.97
2023-02-19T04:21:26.928Z,3.97
2023-02-19T04:26:30.760Z,4.07
2023-02-19T04:31:36.489Z,4.13
2023-02-19T04:36:40.896Z,3.37
2023-02-19T04:41:44.143Z,3.43
2023-02-19T04:46:47.150Z,3.50
2023-02-19T04:51:51.581Z,2.93
2023-02-19T04:56:54.601Z,3.67
2023-02-19T05:01:58.050Z,2.77
2023-02-19T05:07:02.403Z,3.57
2023-02-19T05:12:05.674Z,3.63
2023-02-19T05:17:08.687Z,3.80
2023-02-19T05:22:13.128Z,3.23
2023-02-19T05:27:16.210Z,3.33
2023-02-19T05:32:19.236Z,3.97
2023-02-19T05:37:23.679Z,3.97
2023-02-19T05:42:26.694Z,3.60
2023-02-19T05:47:29.654Z,3.00
2023-02-19T05:52:34.246Z,3.83
2023-02-19T05:57:43.509Z,3.23
2023-02-19T06:02:47.204Z,3.30
2023-02-19T06:07:51.724Z,3.30
2023-02-19T06:12:54.780Z,3.93
2023-02-19T06:17:57.726Z,3.60
2023-02-19T06:23:02.434Z,4.00
2023-02-19T06:28:05.997Z,4.37
2023-02-19T06:33:08.923Z,3.57
2023-02-19T06:38:13.312Z,3.70
2023-02-19T06:43:16.329Z,3.50
2023-02-19T06:48:19.336Z,4.07
2023-02-19T06:53:24.630Z,4.43
2023-02-19T06:58:28.421Z,5.47
2023-02-19T07:03:31.372Z,5.00
2023-02-19T07:08:35.800Z,5.10
2023-02-19T07:13:38.795Z,5.30
2023-02-19T07:18:42.312Z,5.57
2023-02-19T07:23:47.212Z,5.40
2023-02-19T07:28:52.030Z,5.47
2023-02-19T07:33:55.723Z,5.27
2023-02-19T07:39:00.939Z,4.77
2023-02-19T07:44:03.885Z,5.27
2023-02-19T07:49:07.763Z,5.53
2023-02-19T07:54:12.614Z,5.10
2023-02-19T07:59:15.924Z,5.60
2023-02-19T08:04:18.992Z,5.27
2023-02-19T08:09:23.437Z,4.87
2023-02-19T08:14:27.111Z,5.17
2023-02-19T08:19:30.153Z,5.43
2023-02-19T08:24:34.620Z,5.20
2023-02-19T08:29:37.834Z,5.00
2023-02-19T08:34:40.965Z,6.10
2023-02-19T08:39:45.491Z,4.57
2023-02-19T08:44:48.510Z,4.43
2023-02-19T08:49:51.622Z,4.83
2023-02-19T08:54:56.502Z,4.33
2023-02-19T08:59:59.977Z,4.70
2023-02-19T09:05:03.310Z,4.33
2023-02-19T09:10:08.959Z,3.87
2023-02-19T09:15:11.954Z,4.10
2023-02-19T09:20:15.034Z,4.20
2023-02-19T09:25:22.284Z,4.13
2023-02-19T09:30:25.523Z,3.63
2023-02-19T09:35:28.527Z,3.70
2023-02-19T09:40:32.966Z,3.70
2023-02-19T09:45:39.189Z,4.03
2023-02-19T09:50:47.748Z,4.43
2023-02-19T09:55:53.927Z,3.50
2023-02-19T10:01:00.704Z,4.67
2023-02-19T10:06:11.266Z,4.17
2023-02-19T10:11:17.152Z,3.60
2023-02-19T10:16:24.964Z,3.60
2023-02-19T10:21:29.152Z,3.23
2023-02-19T10:26:36.717Z,3.33
2023-02-19T10:31:40.403Z,3.10
2023-02-19T10:36:45.344Z,3.20
2023-02-19T10:41:50.632Z,2.80
2023-02-19T10:46:55.602Z,2.40
2023-02-19T10:52:05.611Z,1.53
2023-02-19T10:57:30.176Z,1.60
2023-02-19T11:02:33.898Z,1.33
2023-02-19T11:07:38.477Z,1.77
2023-02-19T11:12:43.056Z,1.20
2023-02-19T11:17:46.475Z,1.27
2023-02-19T11:22:50.137Z,0.93
2023-02-19T11:28:00.428Z,1.50
2023-02-19T11:33:31.059Z,1.30
2023-02-19T11:38:33.986Z,1.00
2023-02-19T11:44:05.110Z,1.83
2023-02-19T11:49:25.260Z,1.67
2023-02-19T11:54:48.793Z,3.43
2023-02-19T12:00:01.447Z,1.50
2023-02-19T12:05:27.330Z,1.97
2023-02-19T12:10:39.941Z,1.67
2023-02-19T12:16:00.787Z,1.60
2023-02-19T12:21:17.679Z,1.93
2023-02-19T12:26:26.019Z,1.83
2023-02-19T12:32:00.168Z,1.67
2023-02-19T12:37:18.245Z,1.40
2023-02-19T12:42:36.839Z,1.70
2023-02-19T12:47:43.601Z,1.60
2023-02-19T12:52:51.703Z,2.37
2023-02-19T12:57:58.764Z,1.20
2023-02-19T13:03:10.718Z,1.87
2023-02-19T13:08:21.671Z,1.67
2023-02-19T13:13:30.277Z,1.50
2023-02-19T13:18:41.325Z,1.13
2023-02-19T13:24:00.160Z,1.10
2023-02-19T13:29:17.665Z,1.23
2023-02-19T13:34:35.170Z,1.43
2023-02-19T13:39:38.863Z,1.40
2023-02-19T13:44:42.457Z,1.27
2023-02-19T13:49:50.188Z,1.10
2023-02-19T13:54:53.131Z,1.77
2023-02-19T13:59:58.019Z,1.60
2023-02-19T14:05:05.190Z,1.30
2023-02-19T14:10:14.015Z,2.77
2023-02-19T14:15:45.252Z,3.50
2023-02-19T14:20:49.686Z,3.53
2023-02-19T14:26:03.688Z,3.30
2023-02-19T14:31:18.017Z,3.83
2023-02-19T14:36:48.658Z,3.23
2023-02-19T14:41:54.194Z,3.80
2023-02-19T14:47:00.902Z,4.53
2023-02-19T14:52:13.100Z,3.90
2023-02-19T14:57:20.851Z,3.77
2023-02-19T15:02:25.978Z,3.63
2023-02-19T15:07:32.795Z,3.73
2023-02-19T15:12:42.857Z,3.03
2023-02-19T15:17:46.436Z,2.90
2023-02-19T15:22:51.276Z,2.77
2023-02-19T15:27:54.234Z,2.93
2023-02-19T15:32:58.937Z,2.80
2023-02-19T15:38:03.377Z,2.80
2023-02-19T15:43:06.486Z,2.70
2023-02-19T15:48:13.300Z,3.17
2023-02-19T15:53:21.087Z,3.87
2023-02-19T15:58:28.755Z,2.80
2023-02-19T16:03:32.712Z,3.10
2023-02-19T16:08:38.651Z,2.30
2023-02-19T16:13:41.725Z,1.10
2023-02-19T16:18:47.573Z,0.70
2023-02-19T16:23:55.126Z,0.80
2023-02-19T16:28:58.162Z,1.00
2023-02-19T16:34:18.386Z,0.80
2023-02-19T16:39:26.383Z,0.80
2023-02-19T16:44:37.541Z,0.80
2023-02-19T16:49:42.558Z,0.90
2023-02-19T16:54:48.930Z,1.00
2023-02-19T16:59:52.008Z,1.00
2023-02-19T17:04:55.870Z,1.13
2023-02-19T17:10:00.379Z,1.10
2023-02-19T17:15:03.488Z,1.40
2023-02-19T17:20:20.568Z,0.90
2023-02-19T17:25:25.088Z,1.10
2023-02-19T17:30:30.490Z,1.00
2023-02-19T17:35:33.704Z,1.00
2023-02-19T17:40:38.810Z,0.70
2023-02-19T17:45:41.874Z,0.90
2023-02-19T17:50:44.967Z,1.00
2023-02-19T17:55:49.385Z,1.20
2023-02-19T18:00:52.469Z,1.00
2023-02-19T18:05:55.575Z,1.17
2023-02-19T18:11:00.404Z,1.23
2023-02-19T18:16:03.470Z,1.80
2023-02-19T18:21:10.140Z,1.70
2023-02-19T18:26:20.154Z,2.10
2023-02-19T18:31:23.305Z,2.67
2023-02-19T18:36:26.479Z,2.40
2023-02-19T18:41:31.020Z,3.47
2023-02-19T18:46:34.165Z,2.63
2023-02-19T18:51:37.118Z,2.77
2023-02-19T18:56:45.454Z,1.40
2023-02-19T19:01:48.491Z,1.80
2023-02-19T19:06:51.690Z,2.30
2023-02-19T19:11:59.018Z,1.83
2023-02-19T19:17:02.143Z,1.80
2023-02-19T19:22:05.120Z,1.63
2023-02-19T19:27:09.703Z,2.03
2023-02-19T19:32:12.852Z,1.60
2023-02-19T19:37:17.535Z,1.60
2023-02-19T19:42:22.129Z,2.50
2023-02-19T19:47:25.541Z,4.20
2023-02-19T19:52:30.368Z,2.83
2023-02-19T19:57:34.845Z,1.90
2023-02-19T20:02:37.856Z,1.80
2023-02-19T20:07:41.300Z,1.30
2023-02-19T20:12:45.898Z,1.60
2023-02-19T20:17:49.113Z,1.43
2023-02-19T20:22:52.920Z,1.43
2023-02-19T20:27:57.416Z,1.90
2023-02-19T20:33:00.521Z,2.10
2023-02-19T20:38:03.548Z,2.10
2023-02-19T20:43:08.023Z,1.93
2023-02-19T20:48:11.253Z,2.00
2023-02-19T20:53:14.202Z,2.13
2023-02-19T20:58:19.845Z,2.50
2023-02-19T21:03:23.977Z,2.70
2023-02-19T21:08:27.248Z,3.10
2023-02-19T21:13:32.059Z,2.97
2023-02-19T21:18:35.287Z,2.97
2023-02-19T21:23:38.301Z,3.17
2023-02-19T21:28:42.598Z,3.10
2023-02-19T21:33:45.728Z,3.47
2023-02-19T21:38:48.734Z,4.50
2023-02-19T21:43:54.892Z,4.03
2023-02-19T21:48:58.280Z,4.40
2023-02-19T21:54:01.522Z,4.33
2023-02-19T21:59:05.888Z,4.80
2023-02-19T22:04:10.242Z,3.83
2023-02-19T22:09:14.917Z,4.20
2023-02-19T22:14:19.524Z,5.30
2023-02-19T22:19:22.595Z,5.03
2023-02-19T22:24:25.571Z,5.27
2023-02-19T22:29:29.995Z,5.10
2023-02-19T22:34:33.102Z,5.20
2023-02-19T22:39:36.447Z,5.43
2023-02-19T22:44:43.723Z,6.10
2023-02-19T22:49:47.027Z,5.77
2023-02-19T22:54:50.085Z,5.93
2023-02-19T22:59:54.541Z,5.63
2023-02-19T23:04:57.468Z,5.50
2023-02-19T23:10:00.536Z,6.20
2023-02-19T23:15:05.991Z,6.17
2023-02-19T23:20:10.156Z,5.47
2023-02-19T23:25:13.257Z,6.43
2023-02-19T23:30:18.266Z,6.43
2023-02-19T23:35:21.303Z,6.00
2023-02-19T23:40:24.781Z,6.73
2023-02-19T23:45:29.762Z,6.77
2023-02-19T23:50:32.768Z,7.47
2023-02-19T23:55:35.880Z,6.87
